sensor_id;sensor_type;location;lat;lon;timestamp;pressure;altitude;pressure_sealevel;temperature;humidity
7614;BME280;3848;42.016;23.098;2022-12-18T00:02:03;97658.97;;;11.54;100.00
7614;BME280;3848;42.016;23.098;2022-12-18T00:04:30;97648.78;;;11.52;100.00
7614;BME280;3848;42.016;23.098;2022-12-18T00:06:58;97671.72;;;11.48;100.00
7614;BME280;3848;42.016;23.098;2022-12-18T00:09:25;97676.81;;;11.34;100.00
7614;BME280;3848;42.016;23.098;2022-12-18T00:11:51;97681.94;;;11.16;100.00
7614;BME280;3848;42.016;23.098;2022-12-18T00:14:18;97677.72;;;10.99;100.00
7614;BME280;3848;42.016;23.098;2022-12-18T00:16:46;97681.13;;;10.89;100.00
7614;BME280;3848;42.016;23.098;2022-12-18T00:19:13;97674.34;;;10.84;100.00
7614;BME280;3848;42.016;23.098;2022-12-18T00:21:40;97680.25;;;10.78;100.00
7614;BME280;3848;42.016;23.098;2022-12-18T00:24:09;97685.34;;;10.78;100.00
7614;BME280;3848;42.016;23.098;2022-12-18T00:26:37;97688.75;;;10.74;100.00
7614;BME280;3848;42.016;23.098;2022-12-18T00:29:06;97692.13;;;10.70;100.00
7614;BME280;3848;42.016;23.098;2022-12-18T00:31:34;97690.44;;;10.58;100.00
7614;BME280;3848;42.016;23.098;2022-12-18T00:34:01;97688.72;;;10.56;100.00
7614;BME280;3848;42.016;23.098;2022-12-18T00:36:31;97696.34;;;10.57;100.00
7614;BME280;3848;42.016;23.098;2022-12-18T00:38:59;97704.81;;;10.53;100.00
7614;BME280;3848;42.016;23.098;2022-12-18T00:41:28;97709.06;;;10.51;100.00
7614;BME280;3848;42.016;23.098;2022-12-18T00:44:14;97693.81;;;10.44;100.00
7614;BME280;3848;42.016;23.098;2022-12-18T00:46:43;97718.38;;;10.57;100.00
7614;BME280;3848;42.016;23.098;2022-12-18T00:49:12;97712.44;;;10.55;100.00
7614;BME280;3848;42.016;23.098;2022-12-18T00:51:39;97723.50;;;10.63;100.00
7614;BME280;3848;42.016;23.098;2022-12-18T00:54:06;97722.63;;;10.61;100.00
7614;BME280;3848;42.016;23.098;2022-12-18T00:56:36;97726.84;;;10.60;100.00
7614;BME280;3848;42.016;23.098;2022-12-18T00:59:03;97719.25;;;10.62;100.00
7614;BME280;3848;42.016;23.098;2022-12-18T01:01:30;97721.78;;;10.68;100.00
7614;BME280;3848;42.016;23.098;2022-12-18T01:03:58;97725.19;;;10.70;100.00
7614;BME280;3848;42.016;23.098;2022-12-18T01:06:25;97731.13;;;10.75;100.00
7614;BME280;3848;42.016;23.098;2022-12-18T01:08:52;97735.34;;;10.76;100.00
7614;BME280;3848;42.016;23.098;2022-12-18T01:11:20;97732.81;;;10.76;100.00
7614;BME280;3848;42.016;23.098;2022-12-18T01:13:48;97722.66;;;10.70;100.00
7614;BME280;3848;42.016;23.098;2022-12-18T01:16:16;97736.22;;;10.84;100.00
7614;BME280;3848;42.016;23.098;2022-12-18T01:18:43;97731.97;;;10.86;100.00
7614;BME280;3848;42.016;23.098;2022-12-18T01:21:12;97735.38;;;10.93;100.00
7614;BME280;3848;42.016;23.098;2022-12-18T01:23:39;97742.13;;;10.95;100.00
7614;BME280;3848;42.016;23.098;2022-12-18T01:26:08;97731.13;;;10.93;100.00
7614;BME280;3848;42.016;23.098;2022-12-18T01:28:35;97743.84;;;11.06;100.00
7614;BME280;3848;42.016;23.098;2022-12-18T01:31:15;97750.63;;;11.04;100.00
7614;BME280;3848;42.016;23.098;2022-12-18T01:33:42;97749.75;;;11.02;100.00
7614;BME280;3848;42.016;23.098;2022-12-18T01:36:15;97746.38;;;10.99;100.00
7614;BME280;3848;42.016;23.098;2022-12-18T01:38:42;97759.94;;;11.02;100.00
7614;BME280;3848;42.016;23.098;2022-12-18T01:41:10;97754.03;;;11.06;100.00
7614;BME280;3848;42.016;23.098;2022-12-18T01:43:48;97757.41;;;11.08;100.00
7614;BME280;3848;42.016;23.098;2022-12-18T01:46:18;97757.41;;;11.09;100.00
7614;BME280;3848;42.016;23.098;2022-12-18T01:48:47;97759.94;;;11.02;100.00
7614;BME280;3848;42.016;23.098;2022-12-18T01:51:15;97753.16;;;11.00;100.00
7614;BME280;3848;42.016;23.098;2022-12-18T01:53:43;97766.75;;;11.06;100.00
7614;BME280;3848;42.016;23.098;2022-12-18T01:56:15;97768.44;;;11.04;100.00
7614;BME280;3848;42.016;23.098;2022-12-18T01:58:48;97761.63;;;10.99;100.00
7614;BME280;3848;42.016;23.098;2022-12-18T02:01:18;97765.03;;;10.94;100.00
7614;BME280;3848;42.016;23.098;2022-12-18T02:03:45;97780.28;;;10.98;100.00
7614;BME280;3848;42.016;23.098;2022-12-18T02:06:15;97779.44;;;11.01;100.00
7614;BME280;3848;42.016;23.098;2022-12-18T02:08:49;97773.53;;;11.04;100.00
7614;BME280;3848;42.016;23.098;2022-12-18T02:11:27;97782.84;;;11.06;100.00
7614;BME280;3848;42.016;23.098;2022-12-18T02:14:05;97776.91;;;11.07;100.00
7614;BME280;3848;42.016;23.098;2022-12-18T02:16:39;97770.13;;;11.06;100.00
7614;BME280;3848;42.016;23.098;2022-12-18T02:19:21;97778.59;;;11.08;100.00
7614;BME280;3848;42.016;23.098;2022-12-18T02:22:00;97776.06;;;11.07;100.00
7614;BME280;3848;42.016;23.098;2022-12-18T02:24:35;97778.59;;;11.07;100.00
7614;BME280;3848;42.016;23.098;2022-12-18T02:27:07;97778.59;;;11.00;100.00
7614;BME280;3848;42.016;23.098;2022-12-18T02:29:38;97784.53;;;10.99;100.00
7614;BME280;3848;42.016;23.098;2022-12-18T02:32:09;97776.03;;;10.93;100.00
7614;BME280;3848;42.016;23.098;2022-12-18T02:34:39;97787.91;;;11.02;100.00
7614;BME280;3848;42.016;23.098;2022-12-18T02:37:09;97786.22;;;10.94;100.00
7614;BME280;3848;42.016;23.098;2022-12-18T02:39:39;97790.44;;;10.94;100.00
7614;BME280;3848;42.016;23.098;2022-12-18T02:42:08;97793.00;;;10.94;100.00
7614;BME280;3848;42.016;23.098;2022-12-18T02:44:42;97788.75;;;10.93;100.00
7614;BME280;3848;42.016;23.098;2022-12-18T02:47:10;97793.84;;;10.96;100.00
7614;BME280;3848;42.016;23.098;2022-12-18T02:49:44;97802.31;;;10.96;100.00
7614;BME280;3848;42.016;23.098;2022-12-18T02:52:22;97808.25;;;10.92;100.00
7614;BME280;3848;42.016;23.098;2022-12-18T02:54:57;97809.09;;;10.94;100.00
7614;BME280;3848;42.016;23.098;2022-12-18T02:57:34;97810.78;;;10.89;100.00
7614;BME280;3848;42.016;23.098;2022-12-18T03:00:06;97808.25;;;10.94;100.00
7614;BME280;3848;42.016;23.098;2022-12-18T03:02:39;97809.94;;;10.98;100.00
7614;BME280;3848;42.016;23.098;2022-12-18T03:05:13;97815.03;;;11.01;100.00
7614;BME280;3848;42.016;23.098;2022-12-18T03:07:44;97815.88;;;10.98;100.00
7614;BME280;3848;42.016;23.098;2022-12-18T03:10:17;97818.44;;;10.94;100.00
7614;BME280;3848;42.016;23.098;2022-12-18T03:12:51;97825.19;;;10.89;100.00
7614;BME280;3848;42.016;23.098;2022-12-18T03:15:21;97819.28;;;10.88;100.00
7614;BME280;3848;42.016;23.098;2022-12-18T03:17:56;97816.72;;;10.85;100.00
7614;BME280;3848;42.016;23.098;2022-12-18T03:20:25;97775.13;;;10.53;100.00
7614;BME280;3848;42.016;23.098;2022-12-18T03:22:57;97826.91;;;10.88;100.00
7614;BME280;3848;42.016;23.098;2022-12-18T03:25:28;97833.69;;;10.92;100.00
7614;BME280;3848;42.016;23.098;2022-12-18T03:28:00;97831.94;;;10.78;100.00
7614;BME280;3848;42.016;23.098;2022-12-18T03:30:30;97842.97;;;10.81;100.00
7614;BME280;3848;42.016;23.098;2022-12-18T03:33:04;97848.88;;;10.79;100.00
7614;BME280;3848;42.016;23.098;2022-12-18T03:35:37;97851.44;;;10.77;100.00
7614;BME280;3848;42.016;23.098;2022-12-18T03:38:05;97860.75;;;10.75;100.00
7614;BME280;3848;42.016;23.098;2022-12-18T03:40:41;97869.22;;;10.71;100.00
7614;BME280;3848;42.016;23.098;2022-12-18T03:43:16;97873.47;;;10.81;100.00
7614;BME280;3848;42.016;23.098;2022-12-18T03:45:49;97866.69;;;10.77;100.00
7614;BME280;3848;42.016;23.098;2022-12-18T03:48:20;97859.06;;;10.80;100.00
7614;BME280;3848;42.016;23.098;2022-12-18T03:50:56;97883.69;;;10.87;100.00
7614;BME280;3848;42.016;23.098;2022-12-18T03:53:32;97890.47;;;10.85;100.00
7614;BME280;3848;42.016;23.098;2022-12-18T03:56:04;97898.03;;;10.82;100.00
7614;BME280;3848;42.016;23.098;2022-12-18T03:58:34;97897.19;;;10.80;100.00
7614;BME280;3848;42.016;23.098;2022-12-18T04:01:09;97905.69;;;10.82;100.00
7614;BME280;3848;42.016;23.098;2022-12-18T04:03:39;97910.75;;;10.81;100.00
7614;BME280;3848;42.016;23.098;2022-12-18T04:06:06;97918.38;;;10.81;100.00
7614;BME280;3848;42.016;23.098;2022-12-18T04:08:34;97916.66;;;10.72;100.00
7614;BME280;3848;42.016;23.098;2022-12-18T04:11:02;97926.00;;;10.81;100.00
7614;BME280;3848;42.016;23.098;2022-12-18T04:13:32;97925.13;;;10.69;100.00
7614;BME280;3848;42.016;23.098;2022-12-18T04:16:00;97882.63;;;10.38;100.00
7614;BME280;3848;42.016;23.098;2022-12-18T04:18:27;97931.00;;;10.58;100.00
7614;BME280;3848;42.016;23.098;2022-12-18T04:20:54;97937.75;;;10.54;100.00
7614;BME280;3848;42.016;23.098;2022-12-18T04:23:21;97954.69;;;10.48;100.00
7614;BME280;3848;42.016;23.098;2022-12-18T04:25:48;97956.34;;;10.43;100.00
7614;BME280;3848;42.016;23.098;2022-12-18T04:28:14;97957.16;;;10.40;100.00
7614;BME280;3848;42.016;23.098;2022-12-18T04:30:41;97965.59;;;10.37;100.00
7614;BME280;3848;42.016;23.098;2022-12-18T04:33:10;97967.28;;;10.32;100.00
7614;BME280;3848;42.016;23.098;2022-12-18T04:35:38;97968.13;;;10.31;100.00
7614;BME280;3848;42.016;23.098;2022-12-18T04:38:05;97969.78;;;10.28;100.00
7614;BME280;3848;42.016;23.098;2022-12-18T04:40:32;97956.13;;;10.18;100.00
7614;BME280;3848;42.016;23.098;2022-12-18T04:43:02;97968.94;;;10.27;100.00
7614;BME280;3848;42.016;23.098;2022-12-18T04:45:29;97975.72;;;10.28;100.00
7614;BME280;3848;42.016;23.098;2022-12-18T04:47:57;97982.50;;;10.28;100.00
7614;BME280;3848;42.016;23.098;2022-12-18T04:50:25;97987.56;;;10.23;100.00
7614;BME280;3848;42.016;23.098;2022-12-18T04:52:52;97990.84;;;10.16;100.00
7614;BME280;3848;42.016;23.098;2022-12-18T04:55:18;97984.81;;;10.02;100.00
7614;BME280;3848;42.016;23.098;2022-12-18T04:57:45;98000.06;;;10.02;100.00
7614;BME280;3848;42.016;23.098;2022-12-18T05:00:13;98011.06;;;10.04;100.00
7614;BME280;3848;42.016;23.098;2022-12-18T05:02:40;98007.69;;;10.03;100.00
7614;BME280;3848;42.016;23.098;2022-12-18T05:05:08;98016.16;;;10.05;100.00
7614;BME280;3848;42.016;23.098;2022-12-18T05:07:36;98021.22;;;10.02;100.00
7614;BME280;3848;42.016;23.098;2022-12-18T05:10:04;98022.00;;;9.97;100.00
7614;BME280;3848;42.016;23.098;2022-12-18T05:12:31;98010.03;;;9.84;100.00
7614;BME280;3848;42.016;23.098;2022-12-18T05:14:57;97940.16;;;9.30;100.00
7614;BME280;3848;42.016;23.098;2022-12-18T05:17:24;98031.09;;;9.73;100.00
7614;BME280;3848;42.016;23.098;2022-12-18T05:19:51;98037.03;;;9.75;100.00
7614;BME280;3848;42.016;23.098;2022-12-18T05:22:18;98032.78;;;9.73;100.00
7614;BME280;3848;42.016;23.098;2022-12-18T05:24:46;98031.91;;;9.69;100.00
7614;BME280;3848;42.016;23.098;2022-12-18T05:27:13;97984.25;;;9.41;100.00
7614;BME280;3848;42.016;23.098;2022-12-18T05:29:39;98038.56;;;9.58;100.00
7614;BME280;3848;42.016;23.098;2022-12-18T05:32:06;98046.91;;;9.48;100.00
7614;BME280;3848;42.016;23.098;2022-12-18T05:34:33;98053.69;;;9.52;100.00
7614;BME280;3848;42.016;23.098;2022-12-18T05:37:00;98063.03;;;9.55;100.00
7614;BME280;3848;42.016;23.098;2022-12-18T05:39:26;98061.25;;;9.44;100.00
7614;BME280;3848;42.016;23.098;2022-12-18T05:41:55;98068.03;;;9.48;100.00
7614;BME280;3848;42.016;23.098;2022-12-18T05:44:21;98072.28;;;9.51;100.00
7614;BME280;3848;42.016;23.098;2022-12-18T05:46:48;98075.63;;;9.47;100.00
7614;BME280;3848;42.016;23.098;2022-12-18T05:49:15;98074.81;;;9.50;100.00
7614;BME280;3848;42.016;23.098;2022-12-18T05:51:42;98077.34;;;9.48;100.00
7614;BME280;3848;42.016;23.098;2022-12-18T05:54:08;98085.81;;;9.48;100.00
7614;BME280;3848;42.016;23.098;2022-12-18T05:56:35;98079.88;;;9.48;100.00
7614;BME280;3848;42.016;23.098;2022-12-18T05:59:03;98074.81;;;9.48;100.00
7614;BME280;3848;42.016;23.098;2022-12-18T06:01:30;98079.88;;;9.48;100.00
7614;BME280;3848;42.016;23.098;2022-12-18T06:03:57;98082.38;;;9.43;100.00
7614;BME280;3848;42.016;23.098;2022-12-18T06:06:25;98081.50;;;9.43;100.00
7614;BME280;3848;42.016;23.098;2022-12-18T06:08:53;98086.47;;;9.35;100.00
7614;BME280;3848;42.016;23.098;2022-12-18T06:11:22;98095.03;;;9.40;100.00
7614;BME280;3848;42.016;23.098;2022-12-18T06:13:49;98097.63;;;9.46;100.00
7614;BME280;3848;42.016;23.098;2022-12-18T06:16:18;98112.78;;;9.42;100.00
7614;BME280;3848;42.016;23.098;2022-12-18T06:18:45;98112.69;;;9.36;100.00
7614;BME280;3848;42.016;23.098;2022-12-18T06:21:12;98116.16;;;9.41;100.00
7614;BME280;3848;42.016;23.098;2022-12-18T06:23:39;98076.91;;;9.14;100.00
7614;BME280;3848;42.016;23.098;2022-12-18T06:26:08;98115.41;;;9.48;100.00
7614;BME280;3848;42.016;23.098;2022-12-18T06:28:35;98120.44;;;9.46;100.00
7614;BME280;3848;42.016;23.098;2022-12-18T06:31:03;98105.16;;;9.39;100.00
7614;BME280;3848;42.016;23.098;2022-12-18T06:33:31;98129.81;;;9.52;100.00
7614;BME280;3848;42.016;23.098;2022-12-18T06:36:00;98123.03;;;9.51;100.00
7614;BME280;3848;42.016;23.098;2022-12-18T06:38:27;98129.72;;;9.44;100.00
7614;BME280;3848;42.016;23.098;2022-12-18T06:40:54;98135.66;;;9.46;100.00
7614;BME280;3848;42.016;23.098;2022-12-18T06:43:21;98133.09;;;9.42;100.00
7614;BME280;3848;42.016;23.098;2022-12-18T06:45:48;98144.09;;;9.42;100.00
7614;BME280;3848;42.016;23.098;2022-12-18T06:48:18;98138.16;;;9.40;100.00
7614;BME280;3848;42.016;23.098;2022-12-18T06:50:46;98153.47;;;9.51;100.00
7614;BME280;3848;42.016;23.098;2022-12-18T06:53:13;98131.34;;;9.38;100.00
7614;BME280;3848;42.016;23.098;2022-12-18T06:55:40;98152.59;;;9.47;100.00
7614;BME280;3848;42.016;23.098;2022-12-18T06:58:07;98148.19;;;9.36;100.00
7614;BME280;3848;42.016;23.098;2022-12-18T07:00:33;98165.09;;;9.35;100.00
7614;BME280;3848;42.016;23.098;2022-12-18T07:03:00;98161.84;;;9.42;100.00
7614;BME280;3848;42.016;23.098;2022-12-18T07:05:27;98170.25;;;9.38;100.00
7614;BME280;3848;42.016;23.098;2022-12-18T07:07:55;98171.09;;;9.39;100.00
7614;BME280;3848;42.016;23.098;2022-12-18T07:10:22;98172.69;;;9.32;100.00
7614;BME280;3848;42.016;23.098;2022-12-18T07:12:49;98176.81;;;9.24;100.00
7614;BME280;3848;42.016;23.098;2022-12-18T07:15:16;98189.59;;;9.33;100.00
7614;BME280;3848;42.016;23.098;2022-12-18T07:17:43;98192.09;;;9.29;100.00
7614;BME280;3848;42.016;23.098;2022-12-18T07:20:10;98201.44;;;9.33;100.00
7614;BME280;3848;42.016;23.098;2022-12-18T07:22:37;98206.47;;;9.30;100.00
7614;BME280;3848;42.016;23.098;2022-12-18T07:25:06;98205.56;;;9.25;100.00
7614;BME280;3848;42.016;23.098;2022-12-18T07:27:33;98167.91;;;8.95;100.00
7614;BME280;3848;42.016;23.098;2022-12-18T07:30:00;98217.22;;;9.15;100.00
7614;BME280;3848;42.016;23.098;2022-12-18T07:32:27;98218.91;;;9.14;100.00
7614;BME280;3848;42.016;23.098;2022-12-18T07:34:54;98223.13;;;9.14;100.00
7614;BME280;3848;42.016;23.098;2022-12-18T07:37:21;98237.50;;;9.13;100.00
7614;BME280;3848;42.016;23.098;2022-12-18T07:39:47;98230.72;;;9.12;100.00
7614;BME280;3848;42.016;23.098;2022-12-18T07:42:16;98250.19;;;9.15;100.00
7614;BME280;3848;42.016;23.098;2022-12-18T07:44:57;98246.69;;;9.07;100.00
7614;BME280;3848;42.016;23.098;2022-12-18T07:47:24;98257.69;;;9.07;100.00
7614;BME280;3848;42.016;23.098;2022-12-18T07:49:51;98251.75;;;9.07;100.00
7614;BME280;3848;42.016;23.098;2022-12-18T07:52:18;98259.31;;;9.02;100.00
7614;BME280;3848;42.016;23.098;2022-12-18T07:54:45;98265.16;;;8.98;100.00
7614;BME280;3848;42.016;23.098;2022-12-18T07:57:15;98265.22;;;9.01;100.00
7614;BME280;3848;42.016;23.098;2022-12-18T07:59:42;98259.28;;;9.01;100.00
7614;BME280;3848;42.016;23.098;2022-12-18T08:02:09;98223.38;;;8.75;100.00
7614;BME280;3848;42.016;23.098;2022-12-18T08:04:36;98267.81;;;9.06;100.00
7614;BME280;3848;42.016;23.098;2022-12-18T08:07:02;98283.91;;;9.09;100.00
7614;BME280;3848;42.016;23.098;2022-12-18T08:09:29;98278.19;;;9.20;100.00
7614;BME280;3848;42.016;23.098;2022-12-18T08:11:56;98287.59;;;9.27;100.00
7614;BME280;3848;42.016;23.098;2022-12-18T08:14:24;98293.63;;;9.35;100.00
7614;BME280;3848;42.016;23.098;2022-12-18T08:16:51;98293.72;;;9.39;100.00
7614;BME280;3848;42.016;23.098;2022-12-18T08:19:18;98308.91;;;9.38;100.00
7614;BME280;3848;42.016;23.098;2022-12-18T08:21:44;98294.53;;;9.38;100.00
7614;BME280;3848;42.016;23.098;2022-12-18T08:24:11;98292.88;;;9.39;100.00
7614;BME280;3848;42.016;23.098;2022-12-18T08:26:38;98294.41;;;9.31;100.00
7614;BME280;3848;42.016;23.098;2022-12-18T08:29:05;98309.56;;;9.26;100.00
7614;BME280;3848;42.016;23.098;2022-12-18T08:31:33;98299.38;;;9.25;100.00
7614;BME280;3848;42.016;23.098;2022-12-18T08:34:00;98311.25;;;9.27;100.00
7614;BME280;3848;42.016;23.098;2022-12-18T08:36:27;98307.94;;;9.31;100.00
7614;BME280;3848;42.016;23.098;2022-12-18T08:38:54;98315.53;;;9.30;100.00
7614;BME280;3848;42.016;23.098;2022-12-18T08:41:21;98311.41;;;9.36;100.00
7614;BME280;3848;42.016;23.098;2022-12-18T08:43:48;98310.53;;;9.36;100.00
7614;BME280;3848;42.016;23.098;2022-12-18T08:46:35;98321.69;;;9.44;100.00
7614;BME280;3848;42.016;23.098;2022-12-18T08:49:03;98317.50;;;9.47;100.00
7614;BME280;3848;42.016;23.098;2022-12-18T08:51:30;98324.31;;;9.50;100.00
7614;BME280;3848;42.016;23.098;2022-12-18T08:53:57;98300.50;;;9.42;100.00
7614;BME280;3848;42.016;23.098;2022-12-18T08:56:23;98319.94;;;9.40;100.00
7614;BME280;3848;42.016;23.098;2022-12-18T08:58:53;98322.38;;;9.35;100.00
7614;BME280;3848;42.016;23.098;2022-12-18T09:01:20;98330.84;;;9.36;100.00
7614;BME280;3848;42.016;23.098;2022-12-18T09:03:49;98319.72;;;9.28;100.00
7614;BME280;3848;42.016;23.098;2022-12-18T09:06:18;98316.28;;;9.24;100.00
7614;BME280;3848;42.016;23.098;2022-12-18T09:08:45;98322.25;;;9.28;100.00
7614;BME280;3848;42.016;23.098;2022-12-18T09:11:18;98322.31;;;9.31;100.00
7614;BME280;3848;42.016;23.098;2022-12-18T09:13:45;98326.63;;;9.36;100.00
7614;BME280;3848;42.016;23.098;2022-12-18T09:16:12;98323.31;;;9.40;100.00
7614;BME280;3848;42.016;23.098;2022-12-18T09:18:39;98319.94;;;9.41;100.00
7614;BME280;3848;42.016;23.098;2022-12-18T09:21:11;98299.41;;;9.26;100.00
7614;BME280;3848;42.016;23.098;2022-12-18T09:23:39;98307.34;;;9.46;100.00
7614;BME280;3848;42.016;23.098;2022-12-18T09:26:06;98315.88;;;9.51;100.00
7614;BME280;3848;42.016;23.098;2022-12-18T09:28:33;98315.16;;;9.58;100.00
7614;BME280;3848;42.016;23.098;2022-12-18T09:31:04;98314.34;;;9.62;100.00
7614;BME280;3848;42.016;23.098;2022-12-18T09:33:31;98311.09;;;9.72;100.00
7614;BME280;3848;42.016;23.098;2022-12-18T09:36:01;98307.78;;;9.76;100.00
7614;BME280;3848;42.016;23.098;2022-12-18T09:38:30;98312.88;;;9.78;100.00
7614;BME280;3848;42.016;23.098;2022-12-18T09:40:59;98256.69;;;9.52;100.00
7614;BME280;3848;42.016;23.098;2022-12-18T09:43:32;98315.50;;;9.83;100.00
7614;BME280;3848;42.016;23.098;2022-12-18T09:46:04;98314.66;;;9.84;100.00
7614;BME280;3848;42.016;23.098;2022-12-18T09:48:36;98308.81;;;9.91;100.00
7614;BME280;3848;42.016;23.098;2022-12-18T09:51:10;98316.59;;;10.00;100.00
7614;BME280;3848;42.016;23.098;2022-12-18T09:53:43;98309.69;;;9.93;100.00
7614;BME280;3848;42.016;23.098;2022-12-18T09:56:17;98297.03;;;9.94;100.00
7614;BME280;3848;42.016;23.098;2022-12-18T09:58:47;98311.44;;;9.98;100.00
7614;BME280;3848;42.016;23.098;2022-12-18T10:01:19;98312.44;;;10.06;100.00
7614;BME280;3848;42.016;23.098;2022-12-18T10:03:48;98306.88;;;10.35;100.00
7614;BME280;3848;42.016;23.098;2022-12-18T10:06:18;98302.06;;;10.58;100.00
7614;BME280;3848;42.016;23.098;2022-12-18T10:08:54;98289.06;;;11.18;100.00
7614;BME280;3848;42.016;23.098;2022-12-18T10:11:32;98276.91;;;12.02;100.00
7614;BME280;3848;42.016;23.098;2022-12-18T10:14:04;98291.63;;;12.82;100.00
7614;BME280;3848;42.016;23.098;2022-12-18T10:16:39;98299.34;;;13.57;100.00
7614;BME280;3848;42.016;23.098;2022-12-18T10:19:18;98280.38;;;14.39;100.00
7614;BME280;3848;42.016;23.098;2022-12-18T10:21:55;98281.19;;;14.50;93.16
7614;BME280;3848;42.016;23.098;2022-12-18T10:24:32;98288.75;;;14.69;88.15
7614;BME280;3848;42.016;23.098;2022-12-18T10:27:12;98288.72;;;14.79;87.24
7614;BME280;3848;42.016;23.098;2022-12-18T10:29:41;98275.03;;;14.83;82.65
7614;BME280;3848;42.016;23.098;2022-12-18T10:32:13;98274.66;;;15.31;89.41
7614;BME280;3848;42.016;23.098;2022-12-18T10:34:41;98288.09;;;15.60;76.82
7614;BME280;3848;42.016;23.098;2022-12-18T10:37:13;98288.94;;;15.62;75.32
7614;BME280;3848;42.016;23.098;2022-12-18T10:39:43;98287.38;;;15.40;76.46
7614;BME280;3848;42.016;23.098;2022-12-18T10:42:14;98277.41;;;15.09;80.87
7614;BME280;3848;42.016;23.098;2022-12-18T10:44:42;98271.66;;;14.80;81.30
7614;BME280;3848;42.016;23.098;2022-12-18T10:47:13;98275.25;;;14.42;91.12
7614;BME280;3848;42.016;23.098;2022-12-18T10:49:48;98275.41;;;13.95;90.58
7614;BME280;3848;42.016;23.098;2022-12-18T10:52:19;98277.16;;;13.71;94.61
7614;BME280;3848;42.016;23.098;2022-12-18T10:54:51;98259.31;;;13.50;98.83
7614;BME280;3848;42.016;23.098;2022-12-18T10:57:32;98272.97;;;13.31;100.00
7614;BME280;3848;42.016;23.098;2022-12-18T11:00:13;98270.44;;;13.19;100.00
7614;BME280;3848;42.016;23.098;2022-12-18T11:02:46;98277.22;;;13.13;100.00
7614;BME280;3848;42.016;23.098;2022-12-18T11:05:25;98279.72;;;12.89;100.00
7614;BME280;3848;42.016;23.098;2022-12-18T11:07:52;98278.81;;;12.63;100.00
7614;BME280;3848;42.016;23.098;2022-12-18T11:10:27;98281.25;;;12.28;100.00
7614;BME280;3848;42.016;23.098;2022-12-18T11:12:55;98282.94;;;12.23;100.00
7614;BME280;3848;42.016;23.098;2022-12-18T11:15:26;98282.94;;;12.23;100.00
7614;BME280;3848;42.016;23.098;2022-12-18T11:17:55;98268.50;;;12.17;100.00
7614;BME280;3848;42.016;23.098;2022-12-18T11:20:29;98261.72;;;12.22;100.00
7614;BME280;3848;42.016;23.098;2022-12-18T11:22:59;98267.63;;;12.10;100.00
7614;BME280;3848;42.016;23.098;2022-12-18T11:25:28;98273.50;;;12.02;100.00
7614;BME280;3848;42.016;23.098;2022-12-18T11:27:58;98250.50;;;11.85;100.00
7614;BME280;3848;42.016;23.098;2022-12-18T11:30:27;98261.59;;;11.90;100.00
7614;BME280;3848;42.016;23.098;2022-12-18T11:32:59;98264.09;;;11.84;100.00
7614;BME280;3848;42.016;23.098;2022-12-18T11:35:42;98253.88;;;11.79;100.00
7614;BME280;3848;42.016;23.098;2022-12-18T11:38:18;98255.53;;;11.73;100.00
7614;BME280;3848;42.016;23.098;2022-12-18T11:40:55;98193.31;;;11.26;100.00
7614;BME280;3848;42.016;23.098;2022-12-18T11:43:27;98256.25;;;11.55;100.00
7614;BME280;3848;42.016;23.098;2022-12-18T11:45:59;98256.09;;;11.32;100.00
7614;BME280;3848;42.016;23.098;2022-12-18T11:48:30;98259.50;;;11.34;100.00
7614;BME280;3848;42.016;23.098;2022-12-18T11:51:00;98258.66;;;11.32;100.00
7614;BME280;3848;42.016;23.098;2022-12-18T11:53:29;98264.63;;;11.37;100.00
7614;BME280;3848;42.016;23.098;2022-12-18T11:56:05;98267.91;;;11.24;100.00
7614;BME280;3848;42.016;23.098;2022-12-18T11:58:58;98251.59;;;10.99;100.00
7614;BME280;3848;42.016;23.098;2022-12-18T12:01:37;98274.59;;;11.11;100.00
7614;BME280;3848;42.016;23.098;2022-12-18T12:07:14;98277.81;;;10.89;100.00
7614;BME280;3848;42.016;23.098;2022-12-18T12:09:50;98274.38;;;10.84;100.00
7614;BME280;3848;42.016;23.098;2022-12-18T12:12:35;98278.63;;;10.86;100.00
7614;BME280;3848;42.016;23.098;2022-12-18T12:15:19;98261.53;;;10.73;100.00
7614;BME280;3848;42.016;23.098;2022-12-18T12:17:53;98275.22;;;10.84;100.00
7614;BME280;3848;42.016;23.098;2022-12-18T12:20:29;98281.97;;;10.82;100.00
7614;BME280;3848;42.016;23.098;2022-12-18T12:23:06;98290.41;;;10.81;100.00
7614;BME280;3848;42.016;23.098;2022-12-18T12:25:43;98248.56;;;10.44;100.00
7614;BME280;3848;42.016;23.098;2022-12-18T12:28:21;98287.72;;;10.63;100.00
7614;BME280;3848;42.016;23.098;2022-12-18T12:30:58;98283.34;;;10.51;100.00
7614;BME280;3848;42.016;23.098;2022-12-18T12:33:37;98294.34;;;10.50;100.00
7614;BME280;3848;42.016;23.098;2022-12-18T12:36:16;98289.31;;;10.55;100.00
7614;BME280;3848;42.016;23.098;2022-12-18T12:38:50;98294.38;;;10.52;100.00
7614;BME280;3848;42.016;23.098;2022-12-18T12:41:23;98301.19;;;10.56;100.00
7614;BME280;3848;42.016;23.098;2022-12-18T12:44:17;98308.75;;;10.50;100.00
7614;BME280;3848;42.016;23.098;2022-12-18T12:46:46;98307.03;;;10.49;100.00
7614;BME280;3848;42.016;23.098;2022-12-18T12:49:15;98300.06;;;10.32;100.00
7614;BME280;3848;42.016;23.098;2022-12-18T12:51:46;98316.91;;;10.23;100.00
7614;BME280;3848;42.016;23.098;2022-12-18T12:54:15;98321.88;;;10.20;100.00
7614;BME280;3848;42.016;23.098;2022-12-18T12:56:48;98324.28;;;10.07;100.00
7614;BME280;3848;42.016;23.098;2022-12-18T12:59:23;98327.66;;;10.06;100.00
7614;BME280;3848;42.016;23.098;2022-12-18T13:01:58;98332.78;;;10.09;100.00
7614;BME280;3848;42.016;23.098;2022-12-18T13:04:35;98339.59;;;10.14;100.00
7614;BME280;3848;42.016;23.098;2022-12-18T13:07:09;98328.59;;;10.13;100.00
7614;BME280;3848;42.016;23.098;2022-12-18T13:12:56;98342.34;;;10.27;100.00
7614;BME280;3848;42.016;23.098;2022-12-18T13:15:27;98347.19;;;10.12;100.00
7614;BME280;3848;42.016;23.098;2022-12-18T13:18:12;98341.22;;;10.08;100.00
7614;BME280;3848;42.016;23.098;2022-12-18T13:20:41;98348.88;;;10.12;100.00
7614;BME280;3848;42.016;23.098;2022-12-18T13:23:29;98349.78;;;10.15;100.00
7614;BME280;3848;42.016;23.098;2022-12-18T13:25:58;98347.38;;;10.21;100.00
7614;BME280;3848;42.016;23.098;2022-12-18T13:34:35;98363.34;;;10.17;100.00